sensor_id;sensor_type;location;lat;lon;timestamp;pressure;altitude;pressure_sealevel;temperature;humidity
7157;BME280;3620;49.862;8.758;2023-03-01T00:00:09;100350.25;;;3.89;59.85
7157;BME280;3620;49.862;8.758;2023-03-01T00:02:35;100344.19;;;3.80;60.07
7157;BME280;3620;49.862;8.758;2023-03-01T00:05:03;100349.41;;;3.93;59.57
7157;BME280;3620;49.862;8.758;2023-03-01T00:07:30;100345.03;;;3.94;59.88
7157;BME280;3620;49.862;8.758;2023-03-01T00:09:56;100352.84;;;3.85;59.58
7157;BME280;3620;49.862;8.758;2023-03-01T00:12:24;100351.13;;;3.85;60.06
7157;BME280;3620;49.862;8.758;2023-03-01T00:14:51;100354.56;;;3.92;59.87
7157;BME280;3620;49.862;8.758;2023-03-01T00:17:17;100352.84;;;3.85;60.20
7157;BME280;3620;49.862;8.758;2023-03-01T00:19:44;100360.69;;;3.71;60.90
7157;BME280;3620;49.862;8.758;2023-03-01T00:22:10;100358.06;;;3.57;61.66
7157;BME280;3620;49.862;8.758;2023-03-01T00:24:37;100352.88;;;3.57;61.86
7157;BME280;3620;49.862;8.758;2023-03-01T00:27:03;100346.78;;;3.57;61.50
7157;BME280;3620;49.862;8.758;2023-03-01T00:29:31;100352.88;;;3.62;61.65
7157;BME280;3620;49.862;8.758;2023-03-01T00:31:57;100344.16;;;3.69;61.63
7157;BME280;3620;49.862;8.758;2023-03-01T00:34:24;100341.59;;;3.75;61.20
7157;BME280;3620;49.862;8.758;2023-03-01T00:36:51;100337.25;;;3.79;61.16
7157;BME280;3620;49.862;8.758;2023-03-01T00:39:17;100336.38;;;3.70;61.36
7157;BME280;3620;49.862;8.758;2023-03-01T00:41:44;100331.19;;;3.60;61.59
7157;BME280;3620;49.862;8.758;2023-03-01T00:44:10;100334.63;;;3.50;62.40
7157;BME280;3620;49.862;8.758;2023-03-01T00:46:39;100327.72;;;3.55;62.07
7157;BME280;3620;49.862;8.758;2023-03-01T00:49:05;100325.97;;;3.69;61.35
7157;BME280;3620;49.862;8.758;2023-03-01T00:51:32;100318.16;;;3.69;61.33
7157;BME280;3620;49.862;8.758;2023-03-01T00:54:00;100320.78;;;3.72;61.45
7157;BME280;3620;49.862;8.758;2023-03-01T00:56:27;100319.91;;;3.70;61.82
7157;BME280;3620;49.862;8.758;2023-03-01T00:58:54;100314.69;;;3.61;61.91
7157;BME280;3620;49.862;8.758;2023-03-01T01:01:23;100313.81;;;3.65;61.94
7157;BME280;3620;49.862;8.758;2023-03-01T01:03:55;100308.63;;;3.59;61.98
7157;BME280;3620;49.862;8.758;2023-03-01T01:06:24;100303.44;;;3.54;61.96
7157;BME280;3620;49.862;8.758;2023-03-01T01:08:52;100299.94;;;3.69;62.03
7157;BME280;3620;49.862;8.758;2023-03-01T01:11:20;100292.13;;;3.69;61.65
7157;BME280;3620;49.862;8.758;2023-03-01T01:13:47;100294.75;;;3.72;61.67
7157;BME280;3620;49.862;8.758;2023-03-01T01:16:15;100279.16;;;3.63;61.78
7157;BME280;3620;49.862;8.758;2023-03-01T01:18:42;100273.06;;;3.67;62.20
7157;BME280;3620;49.862;8.758;2023-03-01T01:21:11;100281.72;;;3.69;61.71
7157;BME280;3620;49.862;8.758;2023-03-01T01:23:40;100265.25;;;3.70;62.17
7157;BME280;3620;49.862;8.758;2023-03-01T01:26:09;100265.25;;;3.67;61.77
7157;BME280;3620;49.862;8.758;2023-03-01T01:28:36;100262.69;;;3.64;62.01
7157;BME280;3620;49.862;8.758;2023-03-01T01:31:03;100267.00;;;3.68;61.70
7157;BME280;3620;49.862;8.758;2023-03-01T01:33:31;100267.00;;;3.68;61.64
7157;BME280;3620;49.862;8.758;2023-03-01T01:35:57;100262.69;;;3.59;62.08
7157;BME280;3620;49.862;8.758;2023-03-01T01:38:25;100258.34;;;3.66;62.02
7157;BME280;3620;49.862;8.758;2023-03-01T01:40:52;100261.81;;;3.68;62.06
7157;BME280;3620;49.862;8.758;2023-03-01T01:43:21;100252.25;;;3.78;61.92
7157;BME280;3620;49.862;8.758;2023-03-01T01:45:49;100251.34;;;3.80;61.94
7157;BME280;3620;49.862;8.758;2023-03-01T01:48:18;100253.13;;;3.75;61.95
7157;BME280;3620;49.862;8.758;2023-03-01T01:50:51;100242.69;;;3.78;61.87
7157;BME280;3620;49.862;8.758;2023-03-01T01:53:21;100246.16;;;3.83;61.88
7157;BME280;3620;49.862;8.758;2023-03-01T01:55:53;100240.94;;;3.89;61.67
7157;BME280;3620;49.862;8.758;2023-03-01T01:58:24;100246.13;;;3.92;61.77
7157;BME280;3620;49.862;8.758;2023-03-01T02:00:51;100237.47;;;3.86;62.08
7157;BME280;3620;49.862;8.758;2023-03-01T02:03:22;100241.81;;;3.90;61.89
7157;BME280;3620;49.862;8.758;2023-03-01T02:05:52;100247.91;;;3.84;61.18
7157;BME280;3620;49.862;8.758;2023-03-01T02:08:24;100247.91;;;3.69;62.29
7157;BME280;3620;49.862;8.758;2023-03-01T02:10:53;100253.09;;;3.73;61.98
7157;BME280;3620;49.862;8.758;2023-03-01T02:13:21;100258.31;;;3.69;62.42
7157;BME280;3620;49.862;8.758;2023-03-01T02:15:48;100252.25;;;3.79;62.49
7157;BME280;3620;49.862;8.758;2023-03-01T02:18:17;100249.66;;;3.79;62.09
7157;BME280;3620;49.862;8.758;2023-03-01T02:20:53;100249.66;;;3.79;62.37
7157;BME280;3620;49.862;8.758;2023-03-01T02:23:23;100247.91;;;3.81;62.32
7157;BME280;3620;49.862;8.758;2023-03-01T02:25:56;100247.91;;;3.78;62.09
7157;BME280;3620;49.862;8.758;2023-03-01T02:28:30;100244.47;;;3.70;62.49
7157;BME280;3620;49.862;8.758;2023-03-01T02:30:56;100242.72;;;3.63;62.38
7157;BME280;3620;49.862;8.758;2023-03-01T02:33:42;100234.03;;;3.76;62.87
7157;BME280;3620;49.862;8.758;2023-03-01T02:36:12;100236.66;;;3.67;63.06
7157;BME280;3620;49.862;8.758;2023-03-01T02:38:40;100228.84;;;3.73;63.37
7157;BME280;3620;49.862;8.758;2023-03-01T02:41:08;100227.97;;;3.72;63.16
7157;BME280;3620;49.862;8.758;2023-03-01T02:43:36;100231.44;;;3.70;63.43
7157;BME280;3620;49.862;8.758;2023-03-01T02:46:05;100227.09;;;3.75;63.18
7157;BME280;3620;49.862;8.758;2023-03-01T02:48:40;100220.19;;;3.68;63.68
7157;BME280;3620;49.862;8.758;2023-03-01T02:51:16;100214.97;;;3.71;63.47
7157;BME280;3620;49.862;8.758;2023-03-01T02:53:52;100212.38;;;3.69;63.26
7157;BME280;3620;49.862;8.758;2023-03-01T02:56:20;100210.63;;;3.82;62.96
7157;BME280;3620;49.862;8.758;2023-03-01T02:58:48;100211.44;;;3.87;62.76
7157;BME280;3620;49.862;8.758;2023-03-01T03:01:17;100205.44;;;3.78;63.49
7157;BME280;3620;49.862;8.758;2023-03-01T03:03:44;100198.44;;;3.86;62.70
7157;BME280;3620;49.862;8.758;2023-03-01T03:06:10;100197.56;;;3.88;62.72
7157;BME280;3620;49.862;8.758;2023-03-01T03:08:37;100188.94;;;3.77;62.97
7157;BME280;3620;49.862;8.758;2023-03-01T03:11:04;100188.91;;;3.83;63.31
7157;BME280;3620;49.862;8.758;2023-03-01T03:13:30;100189.75;;;3.90;62.52
7157;BME280;3620;49.862;8.758;2023-03-01T03:15:58;100180.22;;;3.90;62.90
7157;BME280;3620;49.862;8.758;2023-03-01T03:18:25;100180.22;;;3.87;62.61
7157;BME280;3620;49.862;8.758;2023-03-01T03:20:52;100181.09;;;3.91;63.03
7157;BME280;3620;49.862;8.758;2023-03-01T03:23:20;100174.19;;;3.82;62.99
7157;BME280;3620;49.862;8.758;2023-03-01T03:25:48;100168.97;;;3.87;62.63
7157;BME280;3620;49.862;8.758;2023-03-01T03:28:15;100163.75;;;3.84;62.43
7157;BME280;3620;49.862;8.758;2023-03-01T03:30:43;100168.94;;;3.85;62.39
7157;BME280;3620;49.862;8.758;2023-03-01T03:33:11;100171.56;;;3.88;62.73
7157;BME280;3620;49.862;8.758;2023-03-01T03:35:41;100169.75;;;4.02;62.62
7157;BME280;3620;49.862;8.758;2023-03-01T03:38:10;100168.09;;;3.86;62.18
7157;BME280;3620;49.862;8.758;2023-03-01T03:40:43;100158.69;;;3.23;64.10
7157;BME280;3620;49.862;8.758;2023-03-01T03:43:12;100161.28;;;2.72;66.31
7157;BME280;3620;49.862;8.758;2023-03-01T03:45:39;100166.34;;;2.10;69.38
7157;BME280;3620;49.862;8.758;2023-03-01T03:48:07;100150.84;;;2.22;69.02
7157;BME280;3620;49.862;8.758;2023-03-01T03:50:36;100159.44;;;2.06;69.98
7157;BME280;3620;49.862;8.758;2023-03-01T03:53:05;100154.22;;;2.00;70.26
7157;BME280;3620;49.862;8.758;2023-03-01T03:55:32;100148.13;;;1.84;70.68
7157;BME280;3620;49.862;8.758;2023-03-01T03:57:59;100148.94;;;1.79;71.72
7157;BME280;3620;49.862;8.758;2023-03-01T04:00:28;100154.91;;;1.61;72.40
7157;BME280;3620;49.862;8.758;2023-03-01T04:02:54;100155.81;;;1.74;72.29
7157;BME280;3620;49.862;8.758;2023-03-01T04:05:22;100163.59;;;1.71;72.42
7157;BME280;3620;49.862;8.758;2023-03-01T04:07:50;100155.91;;;1.90;71.68
7157;BME280;3620;49.862;8.758;2023-03-01T04:10:27;100158.50;;;1.84;71.65
7157;BME280;3620;49.862;8.758;2023-03-01T04:12:54;100155.00;;;1.82;72.06
7157;BME280;3620;49.862;8.758;2023-03-01T04:15:23;100161.19;;;2.13;71.52
7157;BME280;3620;49.862;8.758;2023-03-01T04:17:51;100161.22;;;2.22;70.84
7157;BME280;3620;49.862;8.758;2023-03-01T04:20:20;100161.16;;;2.07;71.33
7157;BME280;3620;49.862;8.758;2023-03-01T04:22:52;100157.72;;;2.11;71.29
7157;BME280;3620;49.862;8.758;2023-03-01T04:25:19;100160.25;;;2.00;72.01
7157;BME280;3620;49.862;8.758;2023-03-01T04:27:46;100158.59;;;2.17;71.71
7157;BME280;3620;49.862;8.758;2023-03-01T04:30:12;100152.44;;;1.90;72.42
7157;BME280;3620;49.862;8.758;2023-03-01T04:32:39;100155.03;;;1.91;72.59
7157;BME280;3620;49.862;8.758;2023-03-01T04:35:06;100155.94;;;1.99;72.38
7157;BME280;3620;49.862;8.758;2023-03-01T04:37:33;100153.34;;;2.01;72.31
7157;BME280;3620;49.862;8.758;2023-03-01T04:40:02;100150.66;;;1.77;73.83
7157;BME280;3620;49.862;8.758;2023-03-01T04:42:37;100147.19;;;1.69;74.27
7157;BME280;3620;49.862;8.758;2023-03-01T04:45:05;100148.94;;;1.77;73.93
7157;BME280;3620;49.862;8.758;2023-03-01T04:47:38;100154.13;;;1.79;73.78
7157;BME280;3620;49.862;8.758;2023-03-01T04:50:06;100157.63;;;1.84;73.28
7157;BME280;3620;49.862;8.758;2023-03-01T04:52:33;100156.88;;;2.26;71.90
7157;BME280;3620;49.862;8.758;2023-03-01T04:54:59;100159.44;;;2.12;72.08
7157;BME280;3620;49.862;8.758;2023-03-01T04:57:27;100155.88;;;1.80;73.66
7157;BME280;3620;49.862;8.758;2023-03-01T04:59:54;100152.50;;;2.05;72.67
7157;BME280;3620;49.862;8.758;2023-03-01T05:02:20;100146.28;;;1.71;73.91
7157;BME280;3620;49.862;8.758;2023-03-01T05:04:47;100151.56;;;1.89;73.26
7157;BME280;3620;49.862;8.758;2023-03-01T05:07:13;100155.97;;;2.10;72.77
7157;BME280;3620;49.862;8.758;2023-03-01T05:09:44;100155.13;;;2.20;71.84
7157;BME280;3620;49.862;8.758;2023-03-01T05:12:11;100149.03;;;2.03;72.36
7157;BME280;3620;49.862;8.758;2023-03-01T05:14:39;100147.25;;;1.90;73.38
7157;BME280;3620;49.862;8.758;2023-03-01T05:17:06;100155.13;;;2.14;72.56
7157;BME280;3620;49.862;8.758;2023-03-01T05:19:33;100140.44;;;2.13;72.31
7157;BME280;3620;49.862;8.758;2023-03-01T05:21:59;100143.06;;;2.36;71.86
7157;BME280;3620;49.862;8.758;2023-03-01T05:24:31;100143.94;;;2.45;71.75
7157;BME280;3620;49.862;8.758;2023-03-01T05:26:59;100147.41;;;2.35;71.92
7157;BME280;3620;49.862;8.758;2023-03-01T05:29:27;100142.22;;;2.35;72.13
7157;BME280;3620;49.862;8.758;2023-03-01T05:31:57;100138.72;;;2.21;72.29
7157;BME280;3620;49.862;8.758;2023-03-01T05:34:25;100129.09;;;1.90;73.78
7157;BME280;3620;49.862;8.758;2023-03-01T05:36:52;100131.78;;;2.17;72.42
7157;BME280;3620;49.862;8.758;2023-03-01T05:39:20;100134.41;;;2.26;72.19
7157;BME280;3620;49.862;8.758;2023-03-01T05:41:47;100137.81;;;2.11;72.85
7157;BME280;3620;49.862;8.758;2023-03-01T05:44:14;100139.50;;;2.00;73.34
7157;BME280;3620;49.862;8.758;2023-03-01T05:46:41;100131.78;;;2.17;72.63
7157;BME280;3620;49.862;8.758;2023-03-01T05:49:09;100132.63;;;2.10;73.14
7157;BME280;3620;49.862;8.758;2023-03-01T05:51:35;100131.78;;;2.29;72.33
7157;BME280;3620;49.862;8.758;2023-03-01T05:54:02;100128.38;;;2.48;71.19
7157;BME280;3620;49.862;8.758;2023-03-01T05:56:32;100136.13;;;2.21;72.04
7157;BME280;3620;49.862;8.758;2023-03-01T05:58:58;100134.31;;;1.93;73.10
7157;BME280;3620;49.862;8.758;2023-03-01T06:01:25;100130.03;;;2.04;72.61
7157;BME280;3620;49.862;8.758;2023-03-01T06:03:51;100123.19;;;2.59;71.61
7157;BME280;3620;49.862;8.758;2023-03-01T06:06:19;100128.41;;;3.00;70.61
7157;BME280;3620;49.862;8.758;2023-03-01T06:08:46;100131.84;;;3.08;69.73
7157;BME280;3620;49.862;8.758;2023-03-01T06:11:12;100129.22;;;3.27;68.56
7157;BME280;3620;49.862;8.758;2023-03-01T06:13:40;100136.97;;;3.50;67.97
7157;BME280;3620;49.862;8.758;2023-03-01T06:16:08;100128.31;;;3.48;68.22
7157;BME280;3620;49.862;8.758;2023-03-01T06:18:34;100128.25;;;3.67;68.20
7157;BME280;3620;49.862;8.758;2023-03-01T06:21:01;100130.81;;;3.78;66.43
7157;BME280;3620;49.862;8.758;2023-03-01T06:23:30;100121.28;;;3.74;67.32
7157;BME280;3620;49.862;8.758;2023-03-01T06:25:56;100119.53;;;3.79;66.32
7157;BME280;3620;49.862;8.758;2023-03-01T06:28:23;100119.44;;;3.96;66.05
7157;BME280;3620;49.862;8.758;2023-03-01T06:30:50;100118.66;;;3.80;66.50
7157;BME280;3620;49.862;8.758;2023-03-01T06:33:17;100114.34;;;3.82;66.68
7157;BME280;3620;49.862;8.758;2023-03-01T06:35:45;100125.59;;;3.83;66.76
7157;BME280;3620;49.862;8.758;2023-03-01T06:38:12;100122.97;;;3.90;65.72
7157;BME280;3620;49.862;8.758;2023-03-01T06:40:41;100122.06;;;3.94;66.01
7157;BME280;3620;49.862;8.758;2023-03-01T06:43:07;100121.19;;;4.04;65.41
7157;BME280;3620;49.862;8.758;2023-03-01T06:45:34;100126.34;;;4.10;65.28
7157;BME280;3620;49.862;8.758;2023-03-01T06:48:02;100131.50;;;4.16;65.12
7157;BME280;3620;49.862;8.758;2023-03-01T06:50:29;100128.06;;;4.11;65.19
7157;BME280;3620;49.862;8.758;2023-03-01T06:52:56;100120.16;;;4.25;65.17
7157;BME280;3620;49.862;8.758;2023-03-01T06:55:23;100125.41;;;4.20;64.71
7157;BME280;3620;49.862;8.758;2023-03-01T06:57:54;100124.50;;;4.27;64.48
7157;BME280;3620;49.862;8.758;2023-03-01T07:00:23;100119.28;;;4.30;64.75
7157;BME280;3620;49.862;8.758;2023-03-01T07:02:51;100121.81;;;4.41;64.79
7157;BME280;3620;49.862;8.758;2023-03-01T07:05:18;100111.38;;;4.49;63.70
7157;BME280;3620;49.862;8.758;2023-03-01T07:07:44;100126.94;;;4.55;63.78
7157;BME280;3620;49.862;8.758;2023-03-01T07:10:11;100119.22;;;4.41;64.06
7157;BME280;3620;49.862;8.758;2023-03-01T07:12:38;100120.88;;;4.50;63.73
7157;BME280;3620;49.862;8.758;2023-03-01T07:15:09;100117.28;;;4.67;63.26
7157;BME280;3620;49.862;8.758;2023-03-01T07:17:36;100120.75;;;4.68;63.57
7157;BME280;3620;49.862;8.758;2023-03-01T07:20:03;100110.41;;;4.62;63.27
7157;BME280;3620;49.862;8.758;2023-03-01T07:22:30;100105.84;;;4.85;63.03
7157;BME280;3620;49.862;8.758;2023-03-01T07:24:56;100104.19;;;4.76;62.99
7157;BME280;3620;49.862;8.758;2023-03-01T07:27:23;100106.69;;;4.87;63.14
7157;BME280;3620;49.862;8.758;2023-03-01T07:29:49;100098.84;;;4.91;62.82
7157;BME280;3620;49.862;8.758;2023-03-01T07:32:17;100101.44;;;4.93;62.64
7157;BME280;3620;49.862;8.758;2023-03-01T07:34:44;100095.31;;;5.00;62.28
7157;BME280;3620;49.862;8.758;2023-03-01T07:37:10;100101.25;;;5.14;62.13
7157;BME280;3620;49.862;8.758;2023-03-01T07:39:37;100097.72;;;5.18;62.23
7157;BME280;3620;49.862;8.758;2023-03-01T07:42:03;100101.16;;;5.20;61.75
7157;BME280;3620;49.862;8.758;2023-03-01T07:44:30;100090.63;;;5.32;61.82
7157;BME280;3620;49.862;8.758;2023-03-01T07:46:56;100095.81;;;5.35;61.69
7157;BME280;3620;49.862;8.758;2023-03-01T07:49:24;100088.84;;;5.37;61.89
7157;BME280;3620;49.862;8.758;2023-03-01T07:51:52;100079.94;;;5.55;61.21
7157;BME280;3620;49.862;8.758;2023-03-01T07:54:19;100087.72;;;5.59;60.69
7157;BME280;3620;49.862;8.758;2023-03-01T07:56:45;100078.78;;;5.78;60.81
7157;BME280;3620;49.862;8.758;2023-03-01T07:59:12;100074.22;;;5.96;59.26
7157;BME280;3620;49.862;8.758;2023-03-01T08:01:39;100079.66;;;5.77;59.26
7157;BME280;3620;49.862;8.758;2023-03-01T08:04:07;100081.19;;;5.97;59.37
7157;BME280;3620;49.862;8.758;2023-03-01T08:06:35;100072.78;;;5.69;60.12
7157;BME280;3620;49.862;8.758;2023-03-01T08:09:02;100085.81;;;5.72;59.21
7157;BME280;3620;49.862;8.758;2023-03-01T08:11:29;100080.03;;;5.47;60.00
7157;BME280;3620;49.862;8.758;2023-03-01T08:13:55;100084.31;;;5.51;60.33
7157;BME280;3620;49.862;8.758;2023-03-01T08:16:23;100082.22;;;5.80;59.92
7157;BME280;3620;49.862;8.758;2023-03-01T08:18:49;100085.72;;;5.78;59.28
7157;BME280;3620;49.862;8.758;2023-03-01T08:21:17;100086.66;;;5.75;60.00
7157;BME280;3620;49.862;8.758;2023-03-01T08:23:45;100077.91;;;5.79;59.20
7157;BME280;3620;49.862;8.758;2023-03-01T08:26:14;100071.72;;;5.88;58.99
7157;BME280;3620;49.862;8.758;2023-03-01T08:28:41;100062.94;;;5.93;58.70
7157;BME280;3620;49.862;8.758;2023-03-01T08:31:20;100063.84;;;5.93;59.11
7157;BME280;3620;49.862;8.758;2023-03-01T08:33:48;100061.91;;;6.05;58.28
7157;BME280;3620;49.862;8.758;2023-03-01T08:36:17;100060.47;;;5.81;58.34
7157;BME280;3620;49.862;8.758;2023-03-01T08:38:46;100059.63;;;5.79;58.50
7157;BME280;3620;49.862;8.758;2023-03-01T08:41:13;100058.50;;;6.02;57.87
7157;BME280;3620;49.862;8.758;2023-03-01T08:43:39;100061.00;;;6.08;58.75
7157;BME280;3620;49.862;8.758;2023-03-01T08:46:06;100061.03;;;6.06;58.50
7157;BME280;3620;49.862;8.758;2023-03-01T08:48:33;100065.25;;;6.15;58.09
7157;BME280;3620;49.862;8.758;2023-03-01T08:51:07;100056.25;;;6.34;57.87
7157;BME280;3620;49.862;8.758;2023-03-01T08:53:34;100054.97;;;6.03;57.68
7157;BME280;3620;49.862;8.758;2023-03-01T08:56:02;100043.72;;;5.99;57.52
7157;BME280;3620;49.862;8.758;2023-03-01T08:58:28;100047.09;;;6.09;58.21
7157;BME280;3620;49.862;8.758;2023-03-01T09:00:55;100039.19;;;6.12;57.82
7157;BME280;3620;49.862;8.758;2023-03-01T09:03:22;100043.31;;;6.28;57.68
7157;BME280;3620;49.862;8.758;2023-03-01T09:05:49;100040.06;;;6.12;57.71
7157;BME280;3620;49.862;8.758;2023-03-01T09:08:16;100033.78;;;6.24;57.79
7157;BME280;3620;49.862;8.758;2023-03-01T09:10:43;100037.00;;;6.41;57.87
7157;BME280;3620;49.862;8.758;2023-03-01T09:13:11;100033.19;;;6.60;56.73
7157;BME280;3620;49.862;8.758;2023-03-01T09:15:38;100030.53;;;6.63;56.04
7157;BME280;3620;49.862;8.758;2023-03-01T09:18:04;100019.41;;;6.52;56.55
7157;BME280;3620;49.862;8.758;2023-03-01T09:20:32;100025.44;;;6.55;55.87
7157;BME280;3620;49.862;8.758;2023-03-01T09:22:58;100024.50;;;6.58;56.40
7157;BME280;3620;49.862;8.758;2023-03-01T09:25:25;100022.72;;;6.60;56.62
7157;BME280;3620;49.862;8.758;2023-03-01T09:27:51;100006.81;;;6.75;56.07
7157;BME280;3620;49.862;8.758;2023-03-01T09:30:20;100008.63;;;6.70;55.83
7157;BME280;3620;49.862;8.758;2023-03-01T09:32:47;100009.25;;;6.84;55.97
7157;BME280;3620;49.862;8.758;2023-03-01T09:35:13;100008.03;;;7.03;56.02
7157;BME280;3620;49.862;8.758;2023-03-01T09:37:40;100000.13;;;7.05;55.10
7157;BME280;3620;49.862;8.758;2023-03-01T09:40:13;100011.06;;;7.26;54.22
7157;BME280;3620;49.862;8.758;2023-03-01T09:42:47;100000.78;;;7.17;53.69
7157;BME280;3620;49.862;8.758;2023-03-01T09:45:26;99996.75;;;7.43;53.32
7157;BME280;3620;49.862;8.758;2023-03-01T09:47:54;99996.75;;;7.43;52.39
7157;BME280;3620;49.862;8.758;2023-03-01T09:50:22;99991.25;;;7.58;51.98
7157;BME280;3620;49.862;8.758;2023-03-01T09:52:54;99992.03;;;7.61;52.89
7157;BME280;3620;49.862;8.758;2023-03-01T09:55:30;99990.38;;;7.57;53.09
7157;BME280;3620;49.862;8.758;2023-03-01T09:58:00;99981.00;;;7.46;53.24
7157;BME280;3620;49.862;8.758;2023-03-01T10:00:39;99992.53;;;7.37;52.75
7157;BME280;3620;49.862;8.758;2023-03-01T10:03:14;99979.06;;;7.55;52.30
7157;BME280;3620;49.862;8.758;2023-03-01T10:05:50;99992.75;;;7.68;51.69
7157;BME280;3620;49.862;8.758;2023-03-01T10:08:27;99987.16;;;7.83;50.74
7157;BME280;3620;49.862;8.758;2023-03-01T10:10:56;99978.06;;;7.99;50.38
7157;BME280;3620;49.862;8.758;2023-03-01T10:13:26;99987.41;;;8.10;50.48
7157;BME280;3620;49.862;8.758;2023-03-01T10:15:57;99981.38;;;8.07;50.81
7157;BME280;3620;49.862;8.758;2023-03-01T10:18:26;99982.13;;;8.12;50.54
7157;BME280;3620;49.862;8.758;2023-03-01T10:20:58;99975.78;;;8.22;50.76
7157;BME280;3620;49.862;8.758;2023-03-01T10:23:26;99980.22;;;8.19;50.31
7157;BME280;3620;49.862;8.758;2023-03-01T10:26:05;99967.88;;;8.24;50.02
7157;BME280;3620;49.862;8.758;2023-03-01T10:28:42;99974.94;;;8.22;50.14
7157;BME280;3620;49.862;8.758;2023-03-01T10:31:18;99971.25;;;7.92;50.13
7157;BME280;3620;49.862;8.758;2023-03-01T10:33:47;99981.78;;;7.89;50.05
7157;BME280;3620;49.862;8.758;2023-03-01T10:36:18;99968.94;;;8.17;49.63
7157;BME280;3620;49.862;8.758;2023-03-01T10:38:50;99963.44;;;8.27;49.22
7157;BME280;3620;49.862;8.758;2023-03-01T10:41:19;99959.56;;;8.43;49.16
7157;BME280;3620;49.862;8.758;2023-03-01T10:43:50;99966.53;;;8.44;48.28
7157;BME280;3620;49.862;8.758;2023-03-01T10:46:30;99960.91;;;8.59;48.90
7157;BME280;3620;49.862;8.758;2023-03-01T10:49:12;99955.50;;;8.65;48.28
7157;BME280;3620;49.862;8.758;2023-03-01T10:51:40;99954.38;;;8.74;48.56
7157;BME280;3620;49.862;8.758;2023-03-01T10:54:16;99949.41;;;8.96;48.38
7157;BME280;3620;49.862;8.758;2023-03-01T10:56:48;99946.72;;;8.99;47.54
7157;BME280;3620;49.862;8.758;2023-03-01T10:59:29;99941.31;;;8.72;48.33
7157;BME280;3620;49.862;8.758;2023-03-01T11:02:17;99941.66;;;8.93;48.09
7157;BME280;3620;49.862;8.758;2023-03-01T11:04:58;99936.94;;;8.39;47.41
7157;BME280;3620;49.862;8.758;2023-03-01T11:07:25;99923.53;;;8.83;47.36
7157;BME280;3620;49.862;8.758;2023-03-01T11:09:52;99926.91;;;8.89;48.14
7157;BME280;3620;49.862;8.758;2023-03-01T11:12:20;99921.91;;;8.79;47.09
7157;BME280;3620;49.862;8.758;2023-03-01T11:14:48;99912.16;;;8.83;46.93
7157;BME280;3620;49.862;8.758;2023-03-01T11:17:20;99897.81;;;8.96;46.84
7157;BME280;3620;49.862;8.758;2023-03-01T11:20:00;99904.41;;;9.09;46.71
7157;BME280;3620;49.862;8.758;2023-03-01T11:22:30;99895.28;;;9.22;48.01
7157;BME280;3620;49.862;8.758;2023-03-01T11:24:58;99904.16;;;9.18;47.36
7157;BME280;3620;49.862;8.758;2023-03-01T11:27:27;99892.78;;;9.18;46.68
7157;BME280;3620;49.862;8.758;2023-03-01T11:29:59;99888.19;;;9.26;45.89
7157;BME280;3620;49.862;8.758;2023-03-01T11:32:33;99892.22;;;9.08;46.27
7157;BME280;3620;49.862;8.758;2023-03-01T11:35:04;99883.22;;;9.46;47.08
7157;BME280;3620;49.862;8.758;2023-03-01T11:37:39;99882.00;;;9.28;45.74
7157;BME280;3620;49.862;8.758;2023-03-01T11:40:16;99880.22;;;9.29;46.44
7157;BME280;3620;49.862;8.758;2023-03-01T11:42:52;99873.19;;;9.31;46.26
7157;BME280;3620;49.862;8.758;2023-03-01T11:45:23;99875.94;;;9.54;45.71
7157;BME280;3620;49.862;8.758;2023-03-01T11:48:02;99873.34;;;9.80;44.53
7157;BME280;3620;49.862;8.758;2023-03-01T11:50:39;99869.06;;;9.50;45.03
7157;BME280;3620;49.862;8.758;2023-03-01T11:53:26;99871.00;;;9.71;44.85
7157;BME280;3620;49.862;8.758;2023-03-01T11:56:03;99869.31;;;9.70;44.98
7157;BME280;3620;49.862;8.758;2023-03-01T11:58:41;99864.50;;;9.84;44.66
7157;BME280;3620;49.862;8.758;2023-03-01T12:01:19;99865.91;;;9.94;44.50
7157;BME280;3620;49.862;8.758;2023-03-01T12:04:06;99853.66;;;9.93;43.34
7157;BME280;3620;49.862;8.758;2023-03-01T12:06:55;99857.81;;;10.00;43.89
7157;BME280;3620;49.862;8.758;2023-03-01T12:09:43;99857.94;;;9.96;44.04
7157;BME280;3620;49.862;8.758;2023-03-01T12:12:25;99854.88;;;10.09;43.11
7157;BME280;3620;49.862;8.758;2023-03-01T12:15:24;99855.53;;;10.17;42.16
7157;BME280;3620;49.862;8.758;2023-03-01T12:18:09;99841.03;;;10.30;43.75
7157;BME280;3620;49.862;8.758;2023-03-01T12:20:45;99839.41;;;10.51;42.76
7157;BME280;3620;49.862;8.758;2023-03-01T12:23:38;99820.19;;;10.49;41.59
7157;BME280;3620;49.862;8.758;2023-03-01T12:26:14;99820.03;;;10.29;41.71
7157;BME280;3620;49.862;8.758;2023-03-01T12:29:09;99803.91;;;10.63;41.71
7157;BME280;3620;49.862;8.758;2023-03-01T12:32:01;99799.22;;;10.48;42.24
7157;BME280;3620;49.862;8.758;2023-03-01T12:34:42;99789.25;;;10.32;42.25
7157;BME280;3620;49.862;8.758;2023-03-01T12:37:22;99789.03;;;10.39;41.70
7157;BME280;3620;49.862;8.758;2023-03-01T12:40:03;99781.44;;;10.54;42.08
7157;BME280;3620;49.862;8.758;2023-03-01T12:42:42;99779.78;;;10.52;41.64
7157;BME280;3620;49.862;8.758;2023-03-01T12:45:31;99768.59;;;10.70;42.30
7157;BME280;3620;49.862;8.758;2023-03-01T12:48:18;99768.25;;;10.79;42.14
7157;BME280;3620;49.862;8.758;2023-03-01T12:50:52;99771.66;;;10.81;42.59
7157;BME280;3620;49.862;8.758;2023-03-01T12:53:25;99760.44;;;10.99;41.85
7157;BME280;3620;49.862;8.758;2023-03-01T12:55:54;99757.09;;;11.17;41.09
7157;BME280;3620;49.862;8.758;2023-03-01T12:58:26;99757.13;;;10.94;39.94
7157;BME280;3620;49.862;8.758;2023-03-01T13:01:05;99750.16;;;10.93;40.22
7157;BME280;3620;49.862;8.758;2023-03-01T13:03:48;99749.19;;;11.17;41.67
7157;BME280;3620;49.862;8.758;2023-03-01T13:06:24;99748.59;;;11.32;41.55
7157;BME280;3620;49.862;8.758;2023-03-01T13:09:02;99744.53;;;11.45;41.29
7157;BME280;3620;49.862;8.758;2023-03-01T13:11:32;99739.25;;;11.45;41.65
7157;BME280;3620;49.862;8.758;2023-03-01T13:16:59;99735.09;;;11.61;41.01
7157;BME280;3620;49.862;8.758;2023-03-01T13:19:28;99737.44;;;11.26;40.88
7157;BME280;3620;49.862;8.758;2023-03-01T13:21:57;99727.78;;;11.26;41.76
7157;BME280;3620;49.862;8.758;2023-03-01T13:24:27;99718.03;;;11.28;41.12
7157;BME280;3620;49.862;8.758;2023-03-01T13:27:23;99724.44;;;11.43;41.13
7157;BME280;3620;49.862;8.758;2023-03-01T13:29:55;99718.31;;;11.42;41.14
7157;BME280;3620;49.862;8.758;2023-03-01T13:32:26;99717.19;;;11.69;40.81
7157;BME280;3620;49.862;8.758;2023-03-01T13:34:56;99703.59;;;11.58;41.14
7157;BME280;3620;49.862;8.758;2023-03-01T13:37:31;99701.00;;;11.78;40.74
7157;BME280;3620;49.862;8.758;2023-03-01T13:40:03;99702.56;;;12.03;39.60
7157;BME280;3620;49.862;8.758;2023-03-01T13:42:37;99705.22;;;12.03;39.92